sensor_id;sensor_type;location;lat;lon;timestamp;P1;durP1;ratioP1;P2;durP2;ratioP2
44222;SDS011;29895;48.804;9.386;2024-02-28T00:00:25;51.70;;;24.73;;
44222;SDS011;29895;48.804;9.386;2024-02-28T00:02:50;46.63;;;24.45;;
44222;SDS011;29895;48.804;9.386;2024-02-28T00:05:16;39.72;;;22.10;;
44222;SDS011;29895;48.804;9.386;2024-02-28T00:07:42;40.20;;;22.08;;
44222;SDS011;29895;48.804;9.386;2024-02-28T00:10:08;43.58;;;22.02;;
44222;SDS011;29895;48.804;9.386;2024-02-28T00:12:33;38.63;;;21.33;;
44222;SDS011;29895;48.804;9.386;2024-02-28T00:14:59;37.50;;;21.40;;
44222;SDS011;29895;48.804;9.386;2024-02-28T00:17:25;38.95;;;21.58;;
44222;SDS011;29895;48.804;9.386;2024-02-28T00:19:51;45.95;;;24.45;;
44222;SDS011;29895;48.804;9.386;2024-02-28T00:22:17;47.55;;;24.83;;
44222;SDS011;29895;48.804;9.386;2024-02-28T00:24:42;41.63;;;23.33;;
44222;SDS011;29895;48.804;9.386;2024-02-28T00:27:08;44.80;;;24.27;;
44222;SDS011;29895;48.804;9.386;2024-02-28T00:29:34;48.63;;;25.65;;
44222;SDS011;29895;48.804;9.386;2024-02-28T00:31:59;48.95;;;24.65;;
44222;SDS011;29895;48.804;9.386;2024-02-28T00:34:25;51.85;;;26.05;;
44222;SDS011;29895;48.804;9.386;2024-02-28T00:36:51;46.22;;;25.42;;
44222;SDS011;29895;48.804;9.386;2024-02-28T00:39:16;49.80;;;24.98;;
44222;SDS011;29895;48.804;9.386;2024-02-28T00:41:42;49.45;;;25.90;;
44222;SDS011;29895;48.804;9.386;2024-02-28T00:44:08;48.05;;;26.23;;
44222;SDS011;29895;48.804;9.386;2024-02-28T00:46:34;51.83;;;27.40;;
44222;SDS011;29895;48.804;9.386;2024-02-28T00:48:59;50.70;;;25.85;;
44222;SDS011;29895;48.804;9.386;2024-02-28T00:51:25;52.92;;;26.42;;
44222;SDS011;29895;48.804;9.386;2024-02-28T00:53:50;48.35;;;25.85;;
44222;SDS011;29895;48.804;9.386;2024-02-28T00:56:16;53.10;;;27.10;;
44222;SDS011;29895;48.804;9.386;2024-02-28T00:58:43;52.90;;;26.42;;
44222;SDS011;29895;48.804;9.386;2024-02-28T01:01:09;53.20;;;26.48;;
44222;SDS011;29895;48.804;9.386;2024-02-28T01:03:35;49.08;;;25.25;;
44222;SDS011;29895;48.804;9.386;2024-02-28T01:06:01;49.97;;;26.00;;
44222;SDS011;29895;48.804;9.386;2024-02-28T01:08:28;50.35;;;26.80;;
44222;SDS011;29895;48.804;9.386;2024-02-28T01:10:54;51.58;;;26.38;;
44222;SDS011;29895;48.804;9.386;2024-02-28T01:13:20;50.75;;;26.02;;
44222;SDS011;29895;48.804;9.386;2024-02-28T01:15:46;49.13;;;27.13;;
44222;SDS011;29895;48.804;9.386;2024-02-28T01:18:11;49.03;;;26.20;;
44222;SDS011;29895;48.804;9.386;2024-02-28T01:20:37;53.08;;;27.02;;
44222;SDS011;29895;48.804;9.386;2024-02-28T01:23:03;48.33;;;26.42;;
44222;SDS011;29895;48.804;9.386;2024-02-28T01:25:28;52.70;;;26.50;;
44222;SDS011;29895;48.804;9.386;2024-02-28T01:27:55;52.70;;;26.15;;
44222;SDS011;29895;48.804;9.386;2024-02-28T01:30:24;56.22;;;27.40;;
44222;SDS011;29895;48.804;9.386;2024-02-28T01:32:50;51.10;;;26.63;;
44222;SDS011;29895;48.804;9.386;2024-02-28T01:35:16;48.33;;;26.48;;
44222;SDS011;29895;48.804;9.386;2024-02-28T01:37:42;49.90;;;26.25;;
44222;SDS011;29895;48.804;9.386;2024-02-28T01:40:08;47.78;;;24.95;;
44222;SDS011;29895;48.804;9.386;2024-02-28T01:42:34;45.72;;;25.08;;
44222;SDS011;29895;48.804;9.386;2024-02-28T01:45:00;48.50;;;25.60;;
44222;SDS011;29895;48.804;9.386;2024-02-28T01:47:26;44.50;;;24.52;;
44222;SDS011;29895;48.804;9.386;2024-02-28T01:49:51;47.80;;;25.40;;
44222;SDS011;29895;48.804;9.386;2024-02-28T01:52:19;54.53;;;26.38;;
44222;SDS011;29895;48.804;9.386;2024-02-28T01:54:45;47.45;;;26.15;;
44222;SDS011;29895;48.804;9.386;2024-02-28T01:57:11;50.08;;;25.48;;
44222;SDS011;29895;48.804;9.386;2024-02-28T01:59:38;50.92;;;25.65;;
44222;SDS011;29895;48.804;9.386;2024-02-28T02:02:04;50.17;;;26.25;;
44222;SDS011;29895;48.804;9.386;2024-02-28T02:04:30;51.22;;;25.77;;
44222;SDS011;29895;48.804;9.386;2024-02-28T02:06:56;49.35;;;26.15;;
44222;SDS011;29895;48.804;9.386;2024-02-28T02:09:24;48.42;;;25.90;;
44222;SDS011;29895;48.804;9.386;2024-02-28T02:11:51;44.72;;;24.50;;
44222;SDS011;29895;48.804;9.386;2024-02-28T02:14:17;52.28;;;27.05;;
44222;SDS011;29895;48.804;9.386;2024-02-28T02:16:42;47.25;;;25.88;;
44222;SDS011;29895;48.804;9.386;2024-02-28T02:19:08;47.65;;;24.73;;
44222;SDS011;29895;48.804;9.386;2024-02-28T02:21:37;45.97;;;25.45;;
44222;SDS011;29895;48.804;9.386;2024-02-28T02:24:08;48.05;;;26.15;;
44222;SDS011;29895;48.804;9.386;2024-02-28T02:26:34;44.08;;;24.67;;
44222;SDS011;29895;48.804;9.386;2024-02-28T02:29:00;51.60;;;25.75;;
44222;SDS011;29895;48.804;9.386;2024-02-28T02:31:25;43.90;;;24.60;;
44222;SDS011;29895;48.804;9.386;2024-02-28T02:33:51;53.30;;;25.42;;
44222;SDS011;29895;48.804;9.386;2024-02-28T02:36:16;48.65;;;26.48;;
44222;SDS011;29895;48.804;9.386;2024-02-28T02:38:42;48.80;;;24.92;;
44222;SDS011;29895;48.804;9.386;2024-02-28T02:41:08;47.22;;;23.98;;
44222;SDS011;29895;48.804;9.386;2024-02-28T02:43:34;48.78;;;25.67;;
44222;SDS011;29895;48.804;9.386;2024-02-28T02:45:59;46.28;;;24.02;;
44222;SDS011;29895;48.804;9.386;2024-02-28T02:48:25;46.83;;;24.67;;
44222;SDS011;29895;48.804;9.386;2024-02-28T02:50:51;45.58;;;24.27;;
44222;SDS011;29895;48.804;9.386;2024-02-28T02:53:17;48.42;;;25.30;;
44222;SDS011;29895;48.804;9.386;2024-02-28T02:55:42;49.40;;;26.58;;
44222;SDS011;29895;48.804;9.386;2024-02-28T02:58:08;52.65;;;26.00;;
44222;SDS011;29895;48.804;9.386;2024-02-28T03:00:33;47.80;;;25.60;;
44222;SDS011;29895;48.804;9.386;2024-02-28T03:02:59;52.53;;;25.67;;
44222;SDS011;29895;48.804;9.386;2024-02-28T03:05:25;50.95;;;27.15;;
44222;SDS011;29895;48.804;9.386;2024-02-28T03:07:51;46.70;;;25.65;;
44222;SDS011;29895;48.804;9.386;2024-02-28T03:10:17;47.28;;;26.15;;
44222;SDS011;29895;48.804;9.386;2024-02-28T03:12:43;48.63;;;24.80;;
44222;SDS011;29895;48.804;9.386;2024-02-28T03:15:08;45.50;;;25.25;;
44222;SDS011;29895;48.804;9.386;2024-02-28T03:17:34;47.22;;;25.60;;
44222;SDS011;29895;48.804;9.386;2024-02-28T03:19:59;44.05;;;23.60;;
44222;SDS011;29895;48.804;9.386;2024-02-28T03:22:25;48.38;;;25.40;;
44222;SDS011;29895;48.804;9.386;2024-02-28T03:24:51;47.33;;;26.13;;
44222;SDS011;29895;48.804;9.386;2024-02-28T03:27:16;52.20;;;25.52;;
44222;SDS011;29895;48.804;9.386;2024-02-28T03:29:42;53.13;;;25.60;;
44222;SDS011;29895;48.804;9.386;2024-02-28T03:32:08;53.60;;;26.50;;
44222;SDS011;29895;48.804;9.386;2024-02-28T03:34:33;51.42;;;26.90;;
44222;SDS011;29895;48.804;9.386;2024-02-28T03:36:59;48.78;;;26.85;;
44222;SDS011;29895;48.804;9.386;2024-02-28T03:39:25;55.13;;;26.48;;
44222;SDS011;29895;48.804;9.386;2024-02-28T03:41:50;48.67;;;25.95;;
44222;SDS011;29895;48.804;9.386;2024-02-28T03:44:16;46.47;;;25.48;;
44222;SDS011;29895;48.804;9.386;2024-02-28T03:46:42;49.13;;;24.35;;
44222;SDS011;29895;48.804;9.386;2024-02-28T03:49:07;48.13;;;25.15;;
44222;SDS011;29895;48.804;9.386;2024-02-28T03:51:38;48.08;;;25.30;;
44222;SDS011;29895;48.804;9.386;2024-02-28T03:54:07;53.08;;;27.17;;
44222;SDS011;29895;48.804;9.386;2024-02-28T03:56:33;47.70;;;25.45;;
44222;SDS011;29895;48.804;9.386;2024-02-28T03:59:00;45.80;;;24.73;;
44222;SDS011;29895;48.804;9.386;2024-02-28T04:01:26;47.42;;;25.88;;
44222;SDS011;29895;48.804;9.386;2024-02-28T04:03:51;46.33;;;25.73;;
44222;SDS011;29895;48.804;9.386;2024-02-28T04:06:17;48.78;;;25.10;;
44222;SDS011;29895;48.804;9.386;2024-02-28T04:08:43;48.90;;;27.05;;
44222;SDS011;29895;48.804;9.386;2024-02-28T04:11:08;51.03;;;26.52;;
44222;SDS011;29895;48.804;9.386;2024-02-28T04:13:34;52.75;;;26.38;;
44222;SDS011;29895;48.804;9.386;2024-02-28T04:16:01;53.22;;;26.17;;
44222;SDS011;29895;48.804;9.386;2024-02-28T04:18:28;55.10;;;27.73;;
44222;SDS011;29895;48.804;9.386;2024-02-28T04:20:54;50.72;;;27.02;;
44222;SDS011;29895;48.804;9.386;2024-02-28T04:23:20;52.95;;;27.30;;
44222;SDS011;29895;48.804;9.386;2024-02-28T04:25:46;55.63;;;28.17;;
44222;SDS011;29895;48.804;9.386;2024-02-28T04:28:11;53.90;;;27.40;;
44222;SDS011;29895;48.804;9.386;2024-02-28T04:30:37;57.47;;;28.75;;
44222;SDS011;29895;48.804;9.386;2024-02-28T04:33:03;56.45;;;28.45;;
44222;SDS011;29895;48.804;9.386;2024-02-28T04:35:28;55.80;;;27.67;;
44222;SDS011;29895;48.804;9.386;2024-02-28T04:37:54;50.92;;;26.38;;
44222;SDS011;29895;48.804;9.386;2024-02-28T04:40:20;54.20;;;26.92;;
44222;SDS011;29895;48.804;9.386;2024-02-28T04:42:45;55.65;;;28.92;;
44222;SDS011;29895;48.804;9.386;2024-02-28T04:45:11;48.03;;;25.52;;
44222;SDS011;29895;48.804;9.386;2024-02-28T04:47:37;54.15;;;27.77;;
44222;SDS011;29895;48.804;9.386;2024-02-28T04:50:03;55.55;;;28.98;;
44222;SDS011;29895;48.804;9.386;2024-02-28T04:52:30;59.67;;;28.85;;
44222;SDS011;29895;48.804;9.386;2024-02-28T04:54:56;55.92;;;27.83;;
44222;SDS011;29895;48.804;9.386;2024-02-28T04:57:22;58.50;;;28.75;;
44222;SDS011;29895;48.804;9.386;2024-02-28T04:59:47;55.00;;;28.17;;
44222;SDS011;29895;48.804;9.386;2024-02-28T05:02:13;60.22;;;29.10;;
44222;SDS011;29895;48.804;9.386;2024-02-28T05:04:39;55.17;;;28.63;;
44222;SDS011;29895;48.804;9.386;2024-02-28T05:07:04;55.72;;;29.23;;
44222;SDS011;29895;48.804;9.386;2024-02-28T05:09:32;60.55;;;29.00;;
44222;SDS011;29895;48.804;9.386;2024-02-28T05:11:58;54.85;;;27.38;;
44222;SDS011;29895;48.804;9.386;2024-02-28T05:14:24;55.30;;;28.25;;
44222;SDS011;29895;48.804;9.386;2024-02-28T05:16:50;60.33;;;30.17;;
44222;SDS011;29895;48.804;9.386;2024-02-28T05:19:16;60.38;;;28.42;;
44222;SDS011;29895;48.804;9.386;2024-02-28T05:21:43;56.95;;;29.17;;
44222;SDS011;29895;48.804;9.386;2024-02-28T05:24:09;55.45;;;29.15;;
44222;SDS011;29895;48.804;9.386;2024-02-28T05:26:35;56.58;;;29.08;;
44222;SDS011;29895;48.804;9.386;2024-02-28T05:29:02;56.33;;;27.75;;
44222;SDS011;29895;48.804;9.386;2024-02-28T05:31:28;59.30;;;28.85;;
44222;SDS011;29895;48.804;9.386;2024-02-28T05:33:55;56.40;;;28.38;;
44222;SDS011;29895;48.804;9.386;2024-02-28T05:36:22;61.17;;;29.40;;
44222;SDS011;29895;48.804;9.386;2024-02-28T05:38:48;60.15;;;28.48;;
44222;SDS011;29895;48.804;9.386;2024-02-28T05:41:17;60.58;;;29.17;;
44222;SDS011;29895;48.804;9.386;2024-02-28T05:43:43;56.38;;;28.58;;
44222;SDS011;29895;48.804;9.386;2024-02-28T05:46:10;59.72;;;30.33;;
44222;SDS011;29895;48.804;9.386;2024-02-28T05:48:35;55.80;;;27.77;;
44222;SDS011;29895;48.804;9.386;2024-02-28T05:51:01;62.95;;;30.75;;
44222;SDS011;29895;48.804;9.386;2024-02-28T05:53:27;59.58;;;28.08;;
44222;SDS011;29895;48.804;9.386;2024-02-28T05:55:57;55.00;;;27.45;;
44222;SDS011;29895;48.804;9.386;2024-02-28T05:58:23;52.80;;;27.02;;
44222;SDS011;29895;48.804;9.386;2024-02-28T06:00:50;48.15;;;26.35;;
44222;SDS011;29895;48.804;9.386;2024-02-28T06:03:16;49.78;;;25.77;;
44222;SDS011;29895;48.804;9.386;2024-02-28T06:05:42;45.20;;;24.10;;
44222;SDS011;29895;48.804;9.386;2024-02-28T06:08:08;44.80;;;24.13;;
44222;SDS011;29895;48.804;9.386;2024-02-28T06:10:34;42.22;;;22.27;;
44222;SDS011;29895;48.804;9.386;2024-02-28T06:12:59;38.20;;;21.88;;
44222;SDS011;29895;48.804;9.386;2024-02-28T06:15:25;42.42;;;21.00;;
44222;SDS011;29895;48.804;9.386;2024-02-28T06:17:51;40.95;;;22.52;;
44222;SDS011;29895;48.804;9.386;2024-02-28T06:20:17;39.85;;;21.42;;
44222;SDS011;29895;48.804;9.386;2024-02-28T06:22:42;38.97;;;22.15;;
44222;SDS011;29895;48.804;9.386;2024-02-28T06:25:08;39.67;;;20.80;;
44222;SDS011;29895;48.804;9.386;2024-02-28T06:27:43;46.10;;;22.58;;
44222;SDS011;29895;48.804;9.386;2024-02-28T06:30:09;41.80;;;22.05;;
44222;SDS011;29895;48.804;9.386;2024-02-28T06:32:34;39.47;;;21.50;;
44222;SDS011;29895;48.804;9.386;2024-02-28T06:35:00;38.65;;;21.23;;
44222;SDS011;29895;48.804;9.386;2024-02-28T06:37:26;42.63;;;21.85;;
44222;SDS011;29895;48.804;9.386;2024-02-28T06:39:53;42.97;;;22.88;;
44222;SDS011;29895;48.804;9.386;2024-02-28T06:42:18;40.33;;;22.63;;
44222;SDS011;29895;48.804;9.386;2024-02-28T06:44:44;45.95;;;22.55;;
44222;SDS011;29895;48.804;9.386;2024-02-28T06:47:10;41.03;;;21.90;;
44222;SDS011;29895;48.804;9.386;2024-02-28T06:49:35;33.53;;;20.48;;
44222;SDS011;29895;48.804;9.386;2024-02-28T06:52:01;39.03;;;20.13;;
44222;SDS011;29895;48.804;9.386;2024-02-28T06:54:30;41.75;;;21.95;;
44222;SDS011;29895;48.804;9.386;2024-02-28T06:56:55;39.28;;;21.83;;
44222;SDS011;29895;48.804;9.386;2024-02-28T06:59:21;39.75;;;21.65;;
44222;SDS011;29895;48.804;9.386;2024-02-28T07:01:47;43.08;;;22.05;;
44222;SDS011;29895;48.804;9.386;2024-02-28T07:04:13;40.20;;;22.25;;
44222;SDS011;29895;48.804;9.386;2024-02-28T07:06:38;44.17;;;22.95;;
44222;SDS011;29895;48.804;9.386;2024-02-28T07:09:07;35.42;;;20.77;;
44222;SDS011;29895;48.804;9.386;2024-02-28T07:11:32;41.25;;;22.52;;
44222;SDS011;29895;48.804;9.386;2024-02-28T07:13:58;36.95;;;21.40;;
44222;SDS011;29895;48.804;9.386;2024-02-28T07:16:27;41.20;;;21.92;;
44222;SDS011;29895;48.804;9.386;2024-02-28T07:18:53;38.35;;;20.77;;
44222;SDS011;29895;48.804;9.386;2024-02-28T07:21:19;42.03;;;21.80;;
44222;SDS011;29895;48.804;9.386;2024-02-28T07:23:44;37.08;;;21.45;;
44222;SDS011;29895;48.804;9.386;2024-02-28T07:26:19;37.95;;;21.58;;
44222;SDS011;29895;48.804;9.386;2024-02-28T07:28:45;35.17;;;18.83;;
44222;SDS011;29895;48.804;9.386;2024-02-28T07:31:16;39.38;;;22.05;;
44222;SDS011;29895;48.804;9.386;2024-02-28T07:33:43;38.17;;;20.77;;
44222;SDS011;29895;48.804;9.386;2024-02-28T07:36:08;38.28;;;20.52;;
44222;SDS011;29895;48.804;9.386;2024-02-28T07:38:35;38.83;;;21.92;;
44222;SDS011;29895;48.804;9.386;2024-02-28T07:41:01;40.40;;;21.83;;
44222;SDS011;29895;48.804;9.386;2024-02-28T07:43:27;42.25;;;21.00;;
44222;SDS011;29895;48.804;9.386;2024-02-28T07:45:53;41.88;;;21.70;;
44222;SDS011;29895;48.804;9.386;2024-02-28T07:48:19;43.17;;;22.20;;
44222;SDS011;29895;48.804;9.386;2024-02-28T07:50:45;36.67;;;20.40;;
44222;SDS011;29895;48.804;9.386;2024-02-28T07:53:10;38.60;;;21.00;;
44222;SDS011;29895;48.804;9.386;2024-02-28T07:55:37;42.45;;;20.63;;
44222;SDS011;29895;48.804;9.386;2024-02-28T07:58:03;38.60;;;21.40;;
44222;SDS011;29895;48.804;9.386;2024-02-28T08:00:31;39.75;;;20.90;;
44222;SDS011;29895;48.804;9.386;2024-02-28T08:02:58;41.85;;;20.23;;
44222;SDS011;29895;48.804;9.386;2024-02-28T08:05:24;36.03;;;20.60;;
44222;SDS011;29895;48.804;9.386;2024-02-28T08:07:50;41.50;;;22.70;;
44222;SDS011;29895;48.804;9.386;2024-02-28T08:10:15;45.17;;;22.92;;
44222;SDS011;29895;48.804;9.386;2024-02-28T08:12:41;41.38;;;21.88;;
44222;SDS011;29895;48.804;9.386;2024-02-28T08:15:07;40.65;;;22.13;;
44222;SDS011;29895;48.804;9.386;2024-02-28T08:17:33;38.50;;;21.15;;
44222;SDS011;29895;48.804;9.386;2024-02-28T08:19:58;37.92;;;21.08;;
44222;SDS011;29895;48.804;9.386;2024-02-28T08:22:24;39.78;;;21.23;;
44222;SDS011;29895;48.804;9.386;2024-02-28T08:24:53;43.55;;;22.60;;
44222;SDS011;29895;48.804;9.386;2024-02-28T08:27:19;39.22;;;22.10;;
44222;SDS011;29895;48.804;9.386;2024-02-28T08:29:45;39.33;;;22.00;;
44222;SDS011;29895;48.804;9.386;2024-02-28T08:32:12;38.83;;;21.23;;
44222;SDS011;29895;48.804;9.386;2024-02-28T08:34:38;37.65;;;21.08;;
44222;SDS011;29895;48.804;9.386;2024-02-28T08:37:04;48.15;;;21.92;;
44222;SDS011;29895;48.804;9.386;2024-02-28T08:39:29;37.92;;;21.13;;
44222;SDS011;29895;48.804;9.386;2024-02-28T08:41:55;39.20;;;21.20;;
44222;SDS011;29895;48.804;9.386;2024-02-28T08:44:21;40.33;;;21.40;;
44222;SDS011;29895;48.804;9.386;2024-02-28T08:46:47;36.88;;;20.95;;
44222;SDS011;29895;48.804;9.386;2024-02-28T08:49:13;39.85;;;21.48;;
44222;SDS011;29895;48.804;9.386;2024-02-28T08:51:39;37.25;;;21.20;;
44222;SDS011;29895;48.804;9.386;2024-02-28T08:54:05;39.75;;;21.38;;
44222;SDS011;29895;48.804;9.386;2024-02-28T08:56:31;39.63;;;22.25;;
44222;SDS011;29895;48.804;9.386;2024-02-28T08:58:58;40.15;;;22.02;;
44222;SDS011;29895;48.804;9.386;2024-02-28T09:01:24;36.20;;;20.52;;
44222;SDS011;29895;48.804;9.386;2024-02-28T09:03:50;39.30;;;21.02;;
44222;SDS011;29895;48.804;9.386;2024-02-28T09:06:15;38.20;;;21.40;;
44222;SDS011;29895;48.804;9.386;2024-02-28T09:08:41;40.40;;;21.60;;
44222;SDS011;29895;48.804;9.386;2024-02-28T09:11:07;37.95;;;20.67;;
44222;SDS011;29895;48.804;9.386;2024-02-28T09:13:33;40.70;;;22.20;;
44222;SDS011;29895;48.804;9.386;2024-02-28T09:16:00;40.28;;;22.80;;
44222;SDS011;29895;48.804;9.386;2024-02-28T09:18:26;40.85;;;22.13;;
44222;SDS011;29895;48.804;9.386;2024-02-28T09:20:52;37.47;;;21.35;;
44222;SDS011;29895;48.804;9.386;2024-02-28T09:23:18;38.78;;;21.90;;
44222;SDS011;29895;48.804;9.386;2024-02-28T09:25:44;41.58;;;22.42;;
44222;SDS011;29895;48.804;9.386;2024-02-28T09:28:09;41.88;;;22.88;;
44222;SDS011;29895;48.804;9.386;2024-02-28T09:30:38;38.45;;;22.23;;
44222;SDS011;29895;48.804;9.386;2024-02-28T09:33:03;42.95;;;23.38;;
44222;SDS011;29895;48.804;9.386;2024-02-28T09:35:29;43.85;;;23.50;;
44222;SDS011;29895;48.804;9.386;2024-02-28T09:37:55;38.88;;;21.45;;
44222;SDS011;29895;48.804;9.386;2024-02-28T09:40:21;38.75;;;22.13;;
44222;SDS011;29895;48.804;9.386;2024-02-28T09:42:48;41.70;;;23.35;;
44222;SDS011;29895;48.804;9.386;2024-02-28T09:45:18;42.20;;;22.80;;
44222;SDS011;29895;48.804;9.386;2024-02-28T09:47:46;41.55;;;22.65;;
44222;SDS011;29895;48.804;9.386;2024-02-28T09:50:12;41.53;;;21.77;;
44222;SDS011;29895;48.804;9.386;2024-02-28T09:52:39;44.22;;;22.88;;
44222;SDS011;29895;48.804;9.386;2024-02-28T09:55:05;40.88;;;22.42;;
44222;SDS011;29895;48.804;9.386;2024-02-28T09:57:31;42.05;;;22.13;;
44222;SDS011;29895;48.804;9.386;2024-02-28T10:00:00;43.40;;;22.70;;
44222;SDS011;29895;48.804;9.386;2024-02-28T10:02:26;45.00;;;25.60;;
44222;SDS011;29895;48.804;9.386;2024-02-28T10:04:52;46.20;;;24.15;;
44222;SDS011;29895;48.804;9.386;2024-02-28T10:07:19;41.83;;;23.60;;
44222;SDS011;29895;48.804;9.386;2024-02-28T10:09:44;42.25;;;22.98;;
44222;SDS011;29895;48.804;9.386;2024-02-28T10:12:11;41.95;;;22.50;;
44222;SDS011;29895;48.804;9.386;2024-02-28T10:14:37;59.28;;;23.92;;
44222;SDS011;29895;48.804;9.386;2024-02-28T10:17:03;48.92;;;24.35;;
44222;SDS011;29895;48.804;9.386;2024-02-28T10:19:29;44.45;;;23.08;;
44222;SDS011;29895;48.804;9.386;2024-02-28T10:21:55;42.88;;;22.63;;
44222;SDS011;29895;48.804;9.386;2024-02-28T10:24:23;48.92;;;24.73;;
44222;SDS011;29895;48.804;9.386;2024-02-28T10:26:50;41.33;;;23.27;;
44222;SDS011;29895;48.804;9.386;2024-02-28T10:29:24;46.05;;;22.42;;
44222;SDS011;29895;48.804;9.386;2024-02-28T10:31:56;48.25;;;23.85;;
44222;SDS011;29895;48.804;9.386;2024-02-28T10:36:47;43.38;;;21.85;;
44222;SDS011;29895;48.804;9.386;2024-02-28T10:39:14;41.60;;;22.02;;
44222;SDS011;29895;48.804;9.386;2024-02-28T10:41:40;40.03;;;21.85;;
44222;SDS011;29895;48.804;9.386;2024-02-28T10:44:07;42.47;;;23.20;;
44222;SDS011;29895;48.804;9.386;2024-02-28T10:46:35;43.55;;;22.95;;
44222;SDS011;29895;48.804;9.386;2024-02-28T10:49:03;43.53;;;23.25;;
44222;SDS011;29895;48.804;9.386;2024-02-28T10:51:29;45.67;;;23.40;;
44222;SDS011;29895;48.804;9.386;2024-02-28T10:56:31;47.80;;;24.67;;
44222;SDS011;29895;48.804;9.386;2024-02-28T10:58:57;45.22;;;23.48;;
44222;SDS011;29895;48.804;9.386;2024-02-28T11:01:24;50.92;;;24.95;;
44222;SDS011;29895;48.804;9.386;2024-02-28T11:03:51;53.67;;;24.38;;
44222;SDS011;29895;48.804;9.386;2024-02-28T11:06:19;49.00;;;24.35;;
44222;SDS011;29895;48.804;9.386;2024-02-28T11:08:49;48.65;;;23.58;;
44222;SDS011;29895;48.804;9.386;2024-02-28T11:11:21;52.60;;;26.42;;
44222;SDS011;29895;48.804;9.386;2024-02-28T11:13:53;54.42;;;26.13;;
44222;SDS011;29895;48.804;9.386;2024-02-28T11:16:27;52.00;;;26.38;;
44222;SDS011;29895;48.804;9.386;2024-02-28T11:18:53;55.42;;;27.92;;
44222;SDS011;29895;48.804;9.386;2024-02-28T11:21:19;54.85;;;26.17;;
44222;SDS011;29895;48.804;9.386;2024-02-28T11:23:47;55.33;;;27.45;;
44222;SDS011;29895;48.804;9.386;2024-02-28T11:26:13;54.08;;;26.98;;
44222;SDS011;29895;48.804;9.386;2024-02-28T11:28:39;58.53;;;27.33;;
44222;SDS011;29895;48.804;9.386;2024-02-28T11:31:05;50.42;;;24.55;;
44222;SDS011;29895;48.804;9.386;2024-02-28T11:33:31;58.42;;;26.15;;
44222;SDS011;29895;48.804;9.386;2024-02-28T11:35:58;51.67;;;24.95;;
44222;SDS011;29895;48.804;9.386;2024-02-28T11:38:27;52.63;;;25.33;;
44222;SDS011;29895;48.804;9.386;2024-02-28T11:40:53;51.05;;;26.58;;
44222;SDS011;29895;48.804;9.386;2024-02-28T11:43:20;49.70;;;23.83;;
44222;SDS011;29895;48.804;9.386;2024-02-28T11:45:46;56.00;;;24.88;;
44222;SDS011;29895;48.804;9.386;2024-02-28T11:48:15;51.47;;;23.65;;
44222;SDS011;29895;48.804;9.386;2024-02-28T11:50:41;52.45;;;24.77;;
44222;SDS011;29895;48.804;9.386;2024-02-28T11:53:07;54.47;;;25.70;;
44222;SDS011;29895;48.804;9.386;2024-02-28T11:55:34;51.53;;;25.02;;
44222;SDS011;29895;48.804;9.386;2024-02-28T11:58:00;49.97;;;24.23;;
44222;SDS011;29895;48.804;9.386;2024-02-28T12:00:25;57.22;;;25.38;;
44222;SDS011;29895;48.804;9.386;2024-02-28T12:02:51;55.40;;;24.33;;
44222;SDS011;29895;48.804;9.386;2024-02-28T12:05:19;52.33;;;24.00;;
44222;SDS011;29895;48.804;9.386;2024-02-28T12:07:45;51.40;;;25.08;;
44222;SDS011;29895;48.804;9.386;2024-02-28T12:10:11;50.22;;;25.00;;
44222;SDS011;29895;48.804;9.386;2024-02-28T12:12:36;51.60;;;23.88;;
44222;SDS011;29895;48.804;9.386;2024-02-28T12:15:04;50.72;;;23.73;;
44222;SDS011;29895;48.804;9.386;2024-02-28T12:17:31;53.15;;;24.30;;
44222;SDS011;29895;48.804;9.386;2024-02-28T12:19:58;55.88;;;24.92;;
44222;SDS011;29895;48.804;9.386;2024-02-28T12:22:25;45.65;;;22.95;;
44222;SDS011;29895;48.804;9.386;2024-02-28T12:24:50;42.70;;;21.50;;
44222;SDS011;29895;48.804;9.386;2024-02-28T12:27:16;49.60;;;24.30;;
44222;SDS011;29895;48.804;9.386;2024-02-28T12:29:42;51.05;;;24.02;;
44222;SDS011;29895;48.804;9.386;2024-02-28T12:32:08;48.42;;;24.13;;
44222;SDS011;29895;48.804;9.386;2024-02-28T12:34:34;42.75;;;22.38;;
44222;SDS011;29895;48.804;9.386;2024-02-28T12:37:00;40.97;;;22.67;;
44222;SDS011;29895;48.804;9.386;2024-02-28T12:39:26;44.20;;;22.02;;
44222;SDS011;29895;48.804;9.386;2024-02-28T12:41:52;47.17;;;22.25;;
44222;SDS011;29895;48.804;9.386;2024-02-28T12:44:18;51.97;;;23.63;;
44222;SDS011;29895;48.804;9.386;2024-02-28T12:46:43;49.22;;;22.85;;
44222;SDS011;29895;48.804;9.386;2024-02-28T12:49:09;48.50;;;23.05;;
44222;SDS011;29895;48.804;9.386;2024-02-28T12:51:36;41.15;;;21.40;;
44222;SDS011;29895;48.804;9.386;2024-02-28T12:54:02;45.42;;;21.42;;
44222;SDS011;29895;48.804;9.386;2024-02-28T12:56:28;40.75;;;20.15;;
44222;SDS011;29895;48.804;9.386;2024-02-28T12:58:53;43.65;;;21.05;;
44222;SDS011;29895;48.804;9.386;2024-02-28T13:01:19;44.90;;;20.98;;
44222;SDS011;29895;48.804;9.386;2024-02-28T13:03:44;46.38;;;22.08;;
44222;SDS011;29895;48.804;9.386;2024-02-28T13:06:10;49.88;;;21.55;;
44222;SDS011;29895;48.804;9.386;2024-02-28T13:08:36;44.05;;;20.77;;
44222;SDS011;29895;48.804;9.386;2024-02-28T13:11:01;46.53;;;21.77;;
44222;SDS011;29895;48.804;9.386;2024-02-28T13:13:28;43.10;;;22.02;;
44222;SDS011;29895;48.804;9.386;2024-02-28T13:15:54;42.55;;;21.77;;
44222;SDS011;29895;48.804;9.386;2024-02-28T13:18:19;46.38;;;22.13;;
44222;SDS011;29895;48.804;9.386;2024-02-28T13:20:45;38.30;;;20.27;;
44222;SDS011;29895;48.804;9.386;2024-02-28T13:23:10;43.25;;;21.80;;
44222;SDS011;29895;48.804;9.386;2024-02-28T13:25:36;42.40;;;21.48;;
44222;SDS011;29895;48.804;9.386;2024-02-28T13:28:02;45.60;;;20.75;;
44222;SDS011;29895;48.804;9.386;2024-02-28T13:30:28;42.40;;;20.58;;
44222;SDS011;29895;48.804;9.386;2024-02-28T13:32:53;39.00;;;19.20;;
44222;SDS011;29895;48.804;9.386;2024-02-28T13:35:19;38.38;;;20.05;;
44222;SDS011;29895;48.804;9.386;2024-02-28T13:37:45;43.30;;;19.88;;
44222;SDS011;29895;48.804;9.386;2024-02-28T13:40:10;40.97;;;19.80;;
44222;SDS011;29895;48.804;9.386;2024-02-28T13:42:36;39.83;;;19.85;;
44222;SDS011;29895;48.804;9.386;2024-02-28T13:45:03;43.90;;;20.55;;
44222;SDS011;29895;48.804;9.386;2024-02-28T13:47:32;36.55;;;19.35;;
44222;SDS011;29895;48.804;9.386;2024-02-28T13:50:01;36.08;;;19.90;;
44222;SDS011;29895;48.804;9.386;2024-02-28T13:52:27;39.63;;;20.15;;
44222;SDS011;29895;48.804;9.386;2024-02-28T13:54:53;42.75;;;19.10;;
44222;SDS011;29895;48.804;9.386;2024-02-28T13:57:19;38.63;;;19.23;;
44222;SDS011;29895;48.804;9.386;2024-02-28T13:59:45;35.50;;;18.45;;
44222;SDS011;29895;48.804;9.386;2024-02-28T14:02:14;41.20;;;20.15;;
44222;SDS011;29895;48.804;9.386;2024-02-28T14:04:40;39.40;;;19.83;;
44222;SDS011;29895;48.804;9.386;2024-02-28T14:07:07;43.67;;;20.50;;
44222;SDS011;29895;48.804;9.386;2024-02-28T14:09:34;39.60;;;18.88;;
44222;SDS011;29895;48.804;9.386;2024-02-28T14:11:59;37.92;;;19.10;;
44222;SDS011;29895;48.804;9.386;2024-02-28T14:14:25;36.85;;;19.58;;
44222;SDS011;29895;48.804;9.386;2024-02-28T14:16:52;37.58;;;19.17;;
44222;SDS011;29895;48.804;9.386;2024-02-28T14:19:18;38.83;;;19.50;;